Time;durP1;ratioP1;P1;durP2;ratioP2;P2;SDS_P1;SDS_P2;PMS_P1;PMS_P2;Temp;Humidity;BMP_temperature;BMP_pressure;BME280_temperature;BME280_humidity;BME280_pressure;Samples;Min_cycle;Max_cycle;Signal;HPM_P1;HPM_P2
2023/10/23 00:01:56;;;;;;;0.30;0.30;;;;;;;;;;6327391;22;20023;-96
2023/10/23 00:04:22;;;;;;;0.30;0.30;;;;;;;;;;6279603;22;20087;-95
2023/10/23 00:06:48;;;;;;;0.40;0.40;;;;;;;;;;6280776;22;20023;-96
2023/10/23 00:11:50;;;;;;;0.30;0.30;;;;;;;;;;6313084;22;20114;-96
2023/10/23 00:14:16;;;;;;;0.43;0.43;;;;;;;;;;6262566;22;20030;-96
2023/10/23 00:16:42;;;;;;;0.30;0.30;;;;;;;;;;6275407;22;20027;-94
2023/10/23 00:19:08;;;;;;;0.30;0.30;;;;;;;;;;6301061;22;20027;-96
2023/10/23 00:32:15;;;;;;;0.40;0.40;;;;;;;;;;6332733;22;20027;-96
2023/10/23 00:34:42;;;;;;;0.40;0.40;;;;;;;;;;6278626;22;20026;-95
2023/10/23 00:42:28;;;;;;;0.40;0.40;;;;;;;;;;6337406;22;20074;-96
2023/10/23 00:47:34;;;;;;;0.30;0.30;;;;;;;;;;6302288;22;20015;-95
2023/10/23 00:50:03;;;;;;;0.30;0.30;;;;;;;;;;6304110;22;20023;-96
2023/10/23 00:52:29;;;;;;;0.30;0.30;;;;;;;;;;6305686;22;20007;-96
2023/10/23 00:55:00;;;;;;;0.40;0.40;;;;;;;;;;6307683;22;20002;-93
2023/10/23 01:00:41;;;;;;;0.30;0.30;;;;;;;;;;6327851;22;20024;-96
2023/10/23 01:03:23;;;;;;;0.35;0.35;;;;;;;;;;6320375;22;20026;-95
2023/10/23 01:08:26;;;;;;;0.30;0.30;;;;;;;;;;6310471;22;20030;-96
2023/10/23 01:13:43;;;;;;;0.30;0.30;;;;;;;;;;6330023;22;20004;-95
2023/10/23 01:16:09;;;;;;;0.30;0.30;;;;;;;;;;6306342;22;20011;-95
2023/10/23 01:18:36;;;;;;;0.40;0.40;;;;;;;;;;6280888;22;20015;-95
2023/10/23 01:21:04;;;;;;;0.40;0.40;;;;;;;;;;6306747;22;20018;-96
2023/10/23 01:23:33;;;;;;;0.40;0.40;;;;;;;;;;6306266;22;20006;-95
2023/10/23 01:26:09;;;;;;;0.40;0.40;;;;;;;;;;6332144;22;20011;-96
2023/10/23 01:28:35;;;;;;;0.30;0.30;;;;;;;;;;6278408;22;20062;-95
2023/10/23 01:31:01;;;;;;;0.40;0.40;;;;;;;;;;6278807;22;20040;-96
2023/10/23 01:33:28;;;;;;;0.30;0.30;;;;;;;;;;6243901;22;20011;-94
2023/10/23 01:35:54;;;;;;;0.40;0.40;;;;;;;;;;6277190;22;20025;-96
2023/10/23 01:38:20;;;;;;;0.40;0.40;;;;;;;;;;6278655;22;20061;-96
2023/10/23 01:40:50;;;;;;;0.40;0.40;;;;;;;;;;6330941;22;20022;-95
2023/10/23 01:43:16;;;;;;;0.30;0.30;;;;;;;;;;6278072;22;20465;-96
2023/10/23 01:45:43;;;;;;;0.30;0.30;;;;;;;;;;6280067;22;20022;-94
2023/10/23 01:48:09;;;;;;;0.40;0.40;;;;;;;;;;6280037;22;20019;-96
2023/10/23 01:50:38;;;;;;;0.25;0.25;;;;;;;;;;6306033;22;20010;-96
2023/10/23 01:55:47;;;;;;;0.40;0.40;;;;;;;;;;6270538;22;20043;-96
2023/10/23 01:58:16;;;;;;;0.40;0.40;;;;;;;;;;6287000;22;20020;-96
2023/10/23 02:03:23;;;;;;;0.40;0.40;;;;;;;;;;6281855;22;20015;-95
2023/10/23 02:05:49;;;;;;;0.40;0.40;;;;;;;;;;6281865;22;20039;-96
2023/10/23 02:10:51;;;;;;;0.32;0.32;;;;;;;;;;6307453;22;20019;-96
2023/10/23 02:13:17;;;;;;;0.30;0.30;;;;;;;;;;6279138;22;20045;-96
2023/10/23 02:18:20;;;;;;;0.38;0.38;;;;;;;;;;6334232;22;20003;-94
2023/10/23 02:21:01;;;;;;;0.40;0.40;;;;;;;;;;6308838;22;20049;-96
2023/10/23 02:23:33;;;;;;;0.40;0.40;;;;;;;;;;6288436;22;20521;-96
2023/10/23 02:33:47;;;;;;;0.35;0.35;;;;;;;;;;6333624;22;20013;-94
2023/10/23 02:36:19;;;;;;;0.40;0.40;;;;;;;;;;6306661;22;20011;-96
2023/10/23 02:38:46;;;;;;;0.40;0.40;;;;;;;;;;6282611;22;20059;-96
2023/10/23 02:41:12;;;;;;;0.30;0.30;;;;;;;;;;6283108;22;20019;-94
2023/10/23 02:43:38;;;;;;;0.30;0.30;;;;;;;;;;6280431;22;20015;-94
2023/10/23 02:48:40;;;;;;;0.30;0.30;;;;;;;;;;6322167;22;20030;-96
2023/10/23 02:51:10;;;;;;;0.38;0.38;;;;;;;;;;6279213;22;20015;-92
2023/10/23 02:56:53;;;;;;;0.30;0.30;;;;;;;;;;6282404;22;20029;-92
2023/10/23 03:04:45;;;;;;;0.40;0.40;;;;;;;;;;6301427;22;20432;-93
2023/10/23 03:10:28;;;;;;;0.40;0.40;;;;;;;;;;6331146;22;20019;-95
2023/10/23 03:12:57;;;;;;;0.30;0.30;;;;;;;;;;6273937;22;20029;-96
2023/10/23 03:15:23;;;;;;;0.40;0.40;;;;;;;;;;6263380;22;20007;-96
2023/10/23 03:18:03;;;;;;;0.40;0.40;;;;;;;;;;6333646;22;20030;-96
2023/10/23 03:28:17;;;;;;;0.40;0.40;;;;;;;;;;6299172;22;20019;-93
2023/10/23 03:44:06;;;;;;;0.40;0.40;;;;;;;;;;6301606;22;20053;-94
2023/10/23 03:47:15;;;;;;;0.40;0.40;;;;;;;;;;6330407;22;20011;-91
2023/10/23 03:52:46;;;;;;;0.45;0.45;;;;;;;;;;6291063;22;20095;-96
2023/10/23 03:57:59;;;;;;;0.43;0.43;;;;;;;;;;6269413;22;20035;-92
2023/10/23 04:03:05;;;;;;;0.40;0.40;;;;;;;;;;6265649;22;20074;-95
2023/10/23 04:32:01;;;;;;;0.40;0.40;;;;;;;;;;6321968;22;20038;-94
2023/10/23 04:34:31;;;;;;;0.40;0.40;;;;;;;;;;6281367;22;20051;-96
2023/10/23 04:44:50;;;;;;;0.40;0.40;;;;;;;;;;6265034;22;20090;-92
2023/10/23 04:52:47;;;;;;;0.40;0.40;;;;;;;;;;6303431;22;20228;-92
2023/10/23 05:08:26;;;;;;;0.40;0.40;;;;;;;;;;6321549;22;20013;-95
2023/10/23 05:13:32;;;;;;;0.50;0.50;;;;;;;;;;6333127;22;20069;-93
2023/10/23 05:21:13;;;;;;;0.40;0.40;;;;;;;;;;6320869;22;20007;-96
2023/10/23 05:23:57;;;;;;;0.50;0.50;;;;;;;;;;6321382;22;20088;-90
2023/10/23 05:34:11;;;;;;;0.47;0.47;;;;;;;;;;6298417;22;20020;-94
2023/10/23 05:41:52;;;;;;;0.50;0.50;;;;;;;;;;6331521;22;20232;-94
2023/10/23 05:44:18;;;;;;;0.40;0.40;;;;;;;;;;6258850;22;20019;-96
2023/10/23 05:54:34;;;;;;;0.38;0.38;;;;;;;;;;6319205;22;20003;-96
2023/10/23 06:10:05;;;;;;;0.40;0.40;;;;;;;;;;6293740;22;20045;-92
2023/10/23 06:12:32;;;;;;;0.40;0.40;;;;;;;;;;6264186;22;20007;-90
2023/10/23 06:14:58;;;;;;;0.50;0.50;;;;;;;;;;6279785;22;20055;-93
2023/10/23 06:48:34;;;;;;;0.40;0.40;;;;;;;;;;6330715;22;20014;-93
2023/10/23 07:06:35;;;;;;;0.40;0.40;;;;;;;;;;6333021;22;20026;-89
2023/10/23 07:09:01;;;;;;;0.40;0.40;;;;;;;;;;6277328;22;20023;-91
2023/10/23 07:11:27;;;;;;;0.50;0.50;;;;;;;;;;6277205;22;20022;-90
2023/10/23 07:13:53;;;;;;;0.50;0.50;;;;;;;;;;6276855;22;20046;-91
2023/10/23 07:16:19;;;;;;;0.50;0.50;;;;;;;;;;6279918;22;20022;-93
2023/10/23 07:18:45;;;;;;;0.40;0.40;;;;;;;;;;6277730;22;20033;-91
2023/10/23 07:21:25;;;;;;;0.40;0.40;;;;;;;;;;6277007;22;20011;-90
2023/10/23 07:26:55;;;;;;;0.50;0.50;;;;;;;;;;6321141;22;20051;-90
2023/10/23 07:29:47;;;;;;;0.50;0.50;;;;;;;;;;6277437;22;20022;-91
2023/10/23 07:32:13;;;;;;;0.50;0.50;;;;;;;;;;6276176;22;20021;-92
2023/10/23 07:34:46;;;;;;;0.40;0.40;;;;;;;;;;6284481;22;20014;-91
2023/10/23 07:37:33;;;;;;;0.40;0.40;;;;;;;;;;6280780;22;20045;-90
2023/10/23 07:40:28;;;;;;;0.50;0.50;;;;;;;;;;6324987;22;20019;-88
2023/10/23 07:42:57;;;;;;;0.40;0.40;;;;;;;;;;6283441;22;20010;-91
2023/10/23 07:45:35;;;;;;;0.43;0.43;;;;;;;;;;6278924;22;20023;-90
2023/10/23 07:48:30;;;;;;;0.50;0.50;;;;;;;;;;6307092;22;20094;-88
2023/10/23 07:51:06;;;;;;;0.40;0.40;;;;;;;;;;6305415;22;20020;-90
2023/10/23 07:53:35;;;;;;;0.43;0.43;;;;;;;;;;6302300;22;20011;-90
2023/10/23 07:56:05;;;;;;;0.50;0.50;;;;;;;;;;6279911;22;20007;-87
2023/10/23 07:58:35;;;;;;;0.40;0.40;;;;;;;;;;6257863;22;20079;-90
2023/10/23 08:01:16;;;;;;;0.40;0.40;;;;;;;;;;6303816;22;20015;-91
2023/10/23 08:03:42;;;;;;;0.45;0.45;;;;;;;;;;6278477;22;20038;-91
2023/10/23 08:06:37;;;;;;;0.40;0.40;;;;;;;;;;6257008;22;20016;-93
2023/10/23 08:09:03;;;;;;;0.40;0.40;;;;;;;;;;6276843;22;20049;-88
2023/10/23 08:12:03;;;;;;;0.50;0.50;;;;;;;;;;6305515;22;20067;-89
2023/10/23 08:14:48;;;;;;;0.40;0.40;;;;;;;;;;6279272;22;20003;-89
2023/10/23 08:17:18;;;;;;;0.40;0.40;;;;;;;;;;6275744;22;20102;-90
2023/10/23 08:19:49;;;;;;;0.50;0.50;;;;;;;;;;6276808;22;20026;-90
2023/10/23 08:22:15;;;;;;;0.40;0.40;;;;;;;;;;6277337;22;20026;-92
2023/10/23 08:24:41;;;;;;;0.40;0.40;;;;;;;;;;6213187;22;20019;-91
2023/10/23 08:27:10;;;;;;;0.40;0.40;;;;;;;;;;6303538;22;20019;-92
2023/10/23 08:29:36;;;;;;;0.40;0.40;;;;;;;;;;6303611;22;20015;-90
2023/10/23 08:32:03;;;;;;;0.40;0.40;;;;;;;;;;6304902;22;20067;-90
2023/10/23 08:34:31;;;;;;;0.50;0.50;;;;;;;;;;6308577;22;20088;-92
2023/10/23 08:36:57;;;;;;;0.43;0.43;;;;;;;;;;6302341;22;20021;-87
2023/10/23 08:42:00;;;;;;;0.50;0.50;;;;;;;;;;6300348;22;20020;-92
2023/10/23 08:49:43;;;;;;;0.38;0.38;;;;;;;;;;6331066;22;20392;-93
2023/10/23 09:02:33;;;;;;;0.40;0.40;;;;;;;;;;6298522;22;20008;-91
2023/10/23 09:04:59;;;;;;;0.40;0.40;;;;;;;;;;6248481;22;20363;-90
2023/10/23 09:07:26;;;;;;;0.40;0.40;;;;;;;;;;6296416;22;20027;-89
2023/10/23 09:10:03;;;;;;;0.40;0.40;;;;;;;;;;6299573;22;20063;-91
2023/10/23 09:20:19;;;;;;;0.30;0.30;;;;;;;;;;6327890;22;20023;-89
2023/10/23 09:22:49;;;;;;;0.30;0.30;;;;;;;;;;6303996;22;20028;-89
2023/10/23 09:25:21;;;;;;;0.40;0.40;;;;;;;;;;6269359;22;20094;-89
2023/10/23 09:27:47;;;;;;;0.28;0.28;;;;;;;;;;6271342;22;20033;-89
2023/10/23 09:30:15;;;;;;;0.40;0.40;;;;;;;;;;6272370;22;20459;-91
2023/10/23 09:32:43;;;;;;;0.40;0.40;;;;;;;;;;6275335;22;20016;-89
2023/10/23 09:35:31;;;;;;;0.30;0.30;;;;;;;;;;6280286;22;20023;-89
2023/10/23 09:46:47;;;;;;;0.98;0.95;;;;;;;;;;6303241;22;20023;-90
2023/10/23 09:49:28;;;;;;;0.82;0.82;;;;;;;;;;6277549;22;20011;-87
2023/10/23 09:55:14;;;;;;;0.30;0.30;;;;;;;;;;6299902;22;20035;-89
2023/10/23 10:06:14;;;;;;;0.30;0.30;;;;;;;;;;6326258;22;20008;-90
2023/10/23 10:09:08;;;;;;;0.30;0.30;;;;;;;;;;6279200;22;20003;-88
2023/10/23 10:11:46;;;;;;;0.40;0.40;;;;;;;;;;6302779;22;20023;-90
2023/10/23 10:14:14;;;;;;;0.40;0.40;;;;;;;;;;6277692;22;20016;-91
2023/10/23 10:43:19;;;;;;;0.30;0.30;;;;;;;;;;6276799;22;20023;-95
2023/10/23 12:06:31;;;;;;;0.30;0.30;;;;;;;;;;6324869;22;20046;-94
2023/10/23 12:08:57;;;;;;;0.30;0.30;;;;;;;;;;6252788;22;20018;-94
2023/10/23 12:17:00;;;;;;;0.30;0.30;;;;;;;;;;6298225;22;20344;-89
2023/10/23 12:19:26;;;;;;;0.40;0.40;;;;;;;;;;6247172;22;20027;-91
2023/10/23 12:21:54;;;;;;;0.40;0.40;;;;;;;;;;6272919;22;20015;-92
2023/10/23 12:24:20;;;;;;;0.30;0.30;;;;;;;;;;6246496;22;20002;-90
2023/10/23 12:26:46;;;;;;;0.30;0.30;;;;;;;;;;6248479;22;20015;-90
2023/10/23 12:29:13;;;;;;;0.30;0.30;;;;;;;;;;6247074;22;20047;-92
2023/10/23 12:31:39;;;;;;;0.20;0.20;;;;;;;;;;6246089;22;20000;-92
2023/10/23 12:34:06;;;;;;;0.20;0.20;;;;;;;;;;6248229;22;20008;-91
2023/10/23 12:39:08;;;;;;;0.30;0.30;;;;;;;;;;6299848;22;20075;-91
2023/10/23 12:41:34;;;;;;;0.30;0.30;;;;;;;;;;6249359;22;20071;-93
2023/10/23 12:44:06;;;;;;;0.30;0.30;;;;;;;;;;6250871;22;20019;-89
2023/10/23 12:46:32;;;;;;;0.30;0.30;;;;;;;;;;6244837;22;20074;-90
2023/10/23 12:48:58;;;;;;;0.20;0.20;;;;;;;;;;6245817;22;20016;-91
2023/10/23 12:51:26;;;;;;;0.28;0.28;;;;;;;;;;6247234;22;20047;-92
2023/10/23 12:53:52;;;;;;;0.30;0.30;;;;;;;;;;6249596;22;20500;-89
2023/10/23 13:01:30;;;;;;;0.28;0.28;;;;;;;;;;6329020;22;20015;-89
2023/10/23 13:04:06;;;;;;;0.40;0.40;;;;;;;;;;6284582;22;20019;-91
2023/10/23 13:06:32;;;;;;;0.20;0.20;;;;;;;;;;6275959;22;20019;-89
2023/10/23 13:09:01;;;;;;;0.30;0.30;;;;;;;;;;6308192;22;19999;-89
2023/10/23 13:11:49;;;;;;;0.95;0.70;;;;;;;;;;6304475;22;20003;-87
2023/10/23 13:14:15;;;;;;;0.40;0.40;;;;;;;;;;6276829;22;20019;-92
2023/10/23 13:16:42;;;;;;;0.35;0.35;;;;;;;;;;6274807;22;20019;-88
2023/10/23 13:19:22;;;;;;;0.30;0.30;;;;;;;;;;6285890;22;20020;-90
2023/10/23 13:21:50;;;;;;;0.20;0.20;;;;;;;;;;6275390;22;20015;-89
2023/10/23 13:24:17;;;;;;;0.30;0.30;;;;;;;;;;6275421;22;20047;-88
2023/10/23 13:26:45;;;;;;;0.10;0.10;;;;;;;;;;6274866;22;20015;-89
2023/10/23 13:29:11;;;;;;;0.30;0.30;;;;;;;;;;6277272;22;20094;-90
2023/10/23 13:31:37;;;;;;;0.50;0.50;;;;;;;;;;6277441;22;20062;-89
2023/10/23 13:34:03;;;;;;;0.30;0.30;;;;;;;;;;6274151;22;20022;-89
2023/10/23 13:39:34;;;;;;;0.30;0.30;;;;;;;;;;6339714;22;20045;-88
2023/10/23 13:42:00;;;;;;;0.20;0.20;;;;;;;;;;6273781;22;20011;-90
2023/10/23 13:44:27;;;;;;;0.20;0.20;;;;;;;;;;6280359;22;20022;-88
2023/10/23 13:47:20;;;;;;;0.20;0.20;;;;;;;;;;6274144;22;20114;-87
2023/10/23 13:50:18;;;;;;;0.30;0.30;;;;;;;;;;6305775;22;20050;-89
2023/10/23 13:52:56;;;;;;;0.30;0.30;;;;;;;;;;6276960;22;20053;-89
2023/10/23 13:55:22;;;;;;;0.30;0.30;;;;;;;;;;6273334;22;20024;-88
2023/10/23 13:58:24;;;;;;;;;;;;;;;;;;;;;
2023/10/23 14:01:11;;;;;;;0.20;0.20;;;;;;;;;;6304673;22;20052;-89
2023/10/23 14:03:37;;;;;;;0.30;0.30;;;;;;;;;;6302089;22;20019;-90
2023/10/23 14:06:03;;;;;;;0.22;0.22;;;;;;;;;;6280189;22;20022;-91
2023/10/23 14:08:30;;;;;;;0.20;0.20;;;;;;;;;;6279508;22;20003;-89
2023/10/23 14:10:56;;;;;;;0.20;0.20;;;;;;;;;;6282867;22;20015;-88
2023/10/23 14:13:26;;;;;;;0.28;0.28;;;;;;;;;;6286165;22;20007;-86
2023/10/23 14:16:06;;;;;;;0.30;0.30;;;;;;;;;;6309256;22;20050;-89
2023/10/23 14:18:52;;;;;;;0.20;0.20;;;;;;;;;;6303424;22;20034;-88
2023/10/23 14:21:18;;;;;;;0.20;0.20;;;;;;;;;;6271429;22;20046;-88
2023/10/23 14:24:01;;;;;;;0.22;0.22;;;;;;;;;;6278888;22;20007;-86
2023/10/23 14:26:46;;;;;;;0.20;0.20;;;;;;;;;;6342869;22;20046;-88
2023/10/23 14:29:12;;;;;;;0.20;0.20;;;;;;;;;;6276139;22;20019;-87
2023/10/23 14:31:46;;;;;;;0.25;0.25;;;;;;;;;;6276142;22;20015;-87
2023/10/23 14:34:14;;;;;;;0.30;0.30;;;;;;;;;;6272151;22;20022;-87
2023/10/23 14:36:41;;;;;;;0.38;0.38;;;;;;;;;;6301145;22;20015;-89
2023/10/23 14:39:12;;;;;;;0.35;0.35;;;;;;;;;;6278310;22;20018;-88
2023/10/23 14:41:38;;;;;;;0.20;0.20;;;;;;;;;;6278322;22;20009;-87
2023/10/23 14:44:07;;;;;;;0.20;0.20;;;;;;;;;;6273474;22;20003;-87
2023/10/23 14:47:04;;;;;;;0.20;0.20;;;;;;;;;;6304595;22;20066;-88
2023/10/23 14:52:06;;;;;;;0.30;0.30;;;;;;;;;;6313117;22;20026;-88
2023/10/23 14:54:32;;;;;;;0.20;0.20;;;;;;;;;;6269198;22;20026;-88
2023/10/23 14:57:00;;;;;;;0.40;0.40;;;;;;;;;;6279046;22;20023;-89
2023/10/23 14:59:32;;;;;;;0.40;0.40;;;;;;;;;;6278537;22;20007;-87
2023/10/23 15:01:58;;;;;;;0.30;0.30;;;;;;;;;;6273569;22;20034;-87
2023/10/23 15:04:25;;;;;;;0.30;0.30;;;;;;;;;;6268194;22;20041;-88
2023/10/23 15:06:51;;;;;;;0.30;0.30;;;;;;;;;;6270460;22;20038;-87
2023/10/23 15:09:17;;;;;;;0.30;0.30;;;;;;;;;;6271106;22;20094;-87
2023/10/23 15:11:44;;;;;;;0.20;0.20;;;;;;;;;;6270343;22;20058;-88
2023/10/23 15:14:35;;;;;;;0.30;0.30;;;;;;;;;;6275499;22;20026;-87
2023/10/23 15:17:13;;;;;;;0.13;0.13;;;;;;;;;;6298295;22;20016;-88
2023/10/23 15:19:39;;;;;;;0.30;0.30;;;;;;;;;;6308163;22;20094;-87
2023/10/23 15:22:12;;;;;;;0.30;0.30;;;;;;;;;;6310955;22;20029;-88
2023/10/23 15:25:12;;;;;;;0.40;0.40;;;;;;;;;;6321831;22;20014;-87
2023/10/23 15:30:14;;;;;;;0.35;0.35;;;;;;;;;;6320679;22;20020;-88
2023/10/23 15:32:43;;;;;;;0.30;0.30;;;;;;;;;;6278925;22;20129;-88
2023/10/23 15:35:09;;;;;;;0.30;0.30;;;;;;;;;;6299113;22;20019;-86
2023/10/23 15:41:06;;;;;;;0.30;0.30;;;;;;;;;;6343954;22;20069;-87
2023/10/23 15:47:11;;;;;;;0.25;0.25;;;;;;;;;;6331585;22;20052;-87
2023/10/23 15:49:38;;;;;;;0.30;0.30;;;;;;;;;;6273005;22;20011;-87
2023/10/23 15:52:16;;;;;;;;;;;;;;;;;;6278438;22;20049;-88
2023/10/23 15:54:51;;;;;;;0.28;0.28;;;;;;;;;;6300102;22;19958;-88
2023/10/23 15:57:40;;;;;;;0.32;0.32;;;;;;;;;;6298203;22;20525;-88
2023/10/23 16:06:47;;;;;;;0.30;0.30;;;;;;;;;;6231245;22;20085;-87
2023/10/23 16:09:15;;;;;;;0.30;0.30;;;;;;;;;;6296127;22;20015;-88
2023/10/23 16:14:35;;;;;;;0.25;0.25;;;;;;;;;;6295422;22;20027;-87
2023/10/23 16:17:09;;;;;;;0.20;0.20;;;;;;;;;;6269971;22;20549;-88
2023/10/23 16:19:35;;;;;;;0.20;0.20;;;;;;;;;;6278499;22;20019;-88
2023/10/23 16:22:38;;;;;;;0.20;0.20;;;;;;;;;;6270843;22;20042;-87
2023/10/23 16:25:05;;;;;;;0.15;0.15;;;;;;;;;;6276866;22;20023;-88
2023/10/23 16:27:35;;;;;;;0.30;0.30;;;;;;;;;;6275771;22;20030;-86
2023/10/23 16:30:09;;;;;;;0.55;0.55;;;;;;;;;;6329429;22;20010;-89
2023/10/23 16:32:41;;;;;;;0.30;0.30;;;;;;;;;;6270697;22;20026;-88
2023/10/23 16:35:08;;;;;;;0.40;0.40;;;;;;;;;;6269149;22;20019;-89
2023/10/23 16:37:34;;;;;;;0.20;0.20;;;;;;;;;;6269729;22;20067;-88
2023/10/23 16:40:00;;;;;;;0.28;0.28;;;;;;;;;;6270432;22;20112;-88
2023/10/23 16:42:26;;;;;;;0.25;0.25;;;;;;;;;;6270897;22;20129;-88
2023/10/23 16:44:58;;;;;;;0.20;0.20;;;;;;;;;;6269660;22;20026;-87
2023/10/23 16:47:24;;;;;;;0.40;0.40;;;;;;;;;;6268248;22;20015;-87
2023/10/23 16:49:52;;;;;;;0.30;0.30;;;;;;;;;;6272138;22;20025;-89
2023/10/23 16:52:24;;;;;;;0.20;0.20;;;;;;;;;;6277866;22;20044;-88
2023/10/23 16:54:56;;;;;;;0.20;0.20;;;;;;;;;;6294485;22;20030;-89
2023/10/23 16:57:22;;;;;;;0.30;0.30;;;;;;;;;;6257771;22;20070;-87
2023/10/23 16:59:51;;;;;;;0.28;0.28;;;;;;;;;;6294276;22;20019;-89
2023/10/23 17:02:17;;;;;;;0.40;0.40;;;;;;;;;;6268452;22;20022;-88
2023/10/23 17:04:46;;;;;;;0.28;0.28;;;;;;;;;;6301686;22;20067;-87
2023/10/23 17:07:13;;;;;;;0.30;0.30;;;;;;;;;;6271494;22;20017;-88
2023/10/23 17:09:39;;;;;;;0.30;0.30;;;;;;;;;;6268167;22;20022;-86
2023/10/23 17:12:07;;;;;;;0.40;0.40;;;;;;;;;;6271508;22;20019;-86
2023/10/23 17:14:33;;;;;;;0.30;0.30;;;;;;;;;;6291748;22;20018;-87
2023/10/23 17:16:59;;;;;;;0.30;0.30;;;;;;;;;;6269580;22;20011;-87
2023/10/23 17:19:25;;;;;;;0.40;0.40;;;;;;;;;;6294150;22;20025;-87
2023/10/23 17:21:52;;;;;;;0.40;0.40;;;;;;;;;;6268042;22;20027;-88
2023/10/23 17:24:18;;;;;;;0.28;0.28;;;;;;;;;;6273720;22;20505;-88
2023/10/23 17:26:44;;;;;;;0.35;0.35;;;;;;;;;;6266374;22;20015;-89
2023/10/23 17:29:10;;;;;;;0.38;0.38;;;;;;;;;;6269787;22;20041;-90
2023/10/23 17:31:36;;;;;;;0.20;0.20;;;;;;;;;;6292469;22;20015;-88
2023/10/23 17:34:02;;;;;;;0.20;0.20;;;;;;;;;;6290954;22;20023;-88
2023/10/23 17:36:32;;;;;;;0.30;0.30;;;;;;;;;;6267320;22;20508;-88
2023/10/23 17:38:58;;;;;;;0.40;0.40;;;;;;;;;;6264332;22;20016;-88
2023/10/23 17:41:25;;;;;;;0.30;0.30;;;;;;;;;;6265879;22;20023;-88
2023/10/23 17:43:52;;;;;;;0.22;0.22;;;;;;;;;;6303660;22;20010;-87
2023/10/23 17:46:21;;;;;;;0.30;0.30;;;;;;;;;;6266688;22;20206;-89
2023/10/23 17:48:47;;;;;;;0.30;0.30;;;;;;;;;;6263803;22;20015;-85
2023/10/23 17:51:13;;;;;;;0.40;0.40;;;;;;;;;;6265748;22;20034;-87
2023/10/23 17:53:40;;;;;;;0.30;0.30;;;;;;;;;;6265764;22;20339;-86
2023/10/23 17:56:10;;;;;;;0.25;0.25;;;;;;;;;;6265251;22;20012;-90
2023/10/23 17:58:36;;;;;;;0.30;0.30;;;;;;;;;;6268796;22;20030;-88
2023/10/23 18:01:09;;;;;;;0.30;0.30;;;;;;;;;;6280924;22;20041;-89
2023/10/23 18:03:58;;;;;;;0.98;0.90;;;;;;;;;;6285065;22;20046;-87
2023/10/23 18:06:27;;;;;;;0.25;0.25;;;;;;;;;;6278296;22;20012;-89
2023/10/23 18:08:56;;;;;;;0.30;0.30;;;;;;;;;;6270993;22;20015;-87
2023/10/23 18:11:42;;;;;;;0.30;0.30;;;;;;;;;;6307100;22;20019;-88
2023/10/23 18:14:12;;;;;;;0.30;0.30;;;;;;;;;;6298978;22;20018;-88
2023/10/23 18:16:38;;;;;;;0.40;0.40;;;;;;;;;;6267437;22;20377;-86
2023/10/23 18:19:05;;;;;;;0.55;0.55;;;;;;;;;;6298110;22;20015;-87
2023/10/23 18:21:31;;;;;;;0.20;0.20;;;;;;;;;;6265503;22;20015;-86
2023/10/23 18:23:57;;;;;;;0.30;0.30;;;;;;;;;;6264467;22;20076;-87
2023/10/23 18:26:24;;;;;;;0.20;0.20;;;;;;;;;;6290750;22;20053;-88
2023/10/23 18:28:54;;;;;;;0.40;0.40;;;;;;;;;;6275561;22;20018;-86
2023/10/23 18:31:20;;;;;;;0.30;0.30;;;;;;;;;;6271130;22;20047;-87
2023/10/23 18:33:46;;;;;;;0.20;0.20;;;;;;;;;;6266543;22;20034;-89
2023/10/23 18:36:25;;;;;;;0.20;0.20;;;;;;;;;;6275057;22;20008;-87
2023/10/23 18:39:10;;;;;;;0.28;0.28;;;;;;;;;;6303101;22;20019;-87
2023/10/23 18:41:43;;;;;;;0.20;0.20;;;;;;;;;;6280585;22;20016;-87
2023/10/23 18:44:18;;;;;;;0.20;0.20;;;;;;;;;;6292650;22;20524;-87
2023/10/23 18:46:44;;;;;;;0.30;0.30;;;;;;;;;;6268860;22;20015;-87
2023/10/23 18:49:10;;;;;;;0.30;0.30;;;;;;;;;;6273242;22;20046;-87
2023/10/23 18:51:36;;;;;;;0.30;0.30;;;;;;;;;;6268976;22;20019;-88
2023/10/23 18:54:02;;;;;;;0.20;0.20;;;;;;;;;;6248166;22;19995;-87
2023/10/23 18:56:32;;;;;;;0.30;0.30;;;;;;;;;;6282176;22;19999;-88
2023/10/23 18:59:05;;;;;;;0.10;0.10;;;;;;;;;;6319605;22;20039;-86
2023/10/23 19:01:32;;;;;;;0.30;0.30;;;;;;;;;;6297118;22;20034;-85
2023/10/23 19:04:13;;;;;;;0.10;0.10;;;;;;;;;;6309742;22;19999;-87
2023/10/23 19:06:58;;;;;;;0.28;0.28;;;;;;;;;;6283422;22;20017;-88
2023/10/23 19:09:24;;;;;;;0.17;0.17;;;;;;;;;;6267381;22;20015;-88
2023/10/23 19:11:50;;;;;;;0.30;0.30;;;;;;;;;;6297546;22;20020;-87
2023/10/23 19:14:16;;;;;;;0.40;0.40;;;;;;;;;;6267728;22;20042;-88
2023/10/23 19:17:03;;;;;;;0.30;0.30;;;;;;;;;;6269742;22;20416;-87
2023/10/23 19:19:29;;;;;;;0.30;0.30;;;;;;;;;;6275033;22;20019;-88
2023/10/23 19:22:29;;;;;;;0.20;0.20;;;;;;;;;;6273146;22;20003;-86
2023/10/23 19:24:59;;;;;;;0.40;0.40;;;;;;;;;;6331239;22;20053;-87
2023/10/23 19:27:25;;;;;;;0.30;0.30;;;;;;;;;;6265666;22;20051;-87
2023/10/23 19:29:51;;;;;;;0.20;0.20;;;;;;;;;;6303695;22;20011;-88
2023/10/23 19:32:17;;;;;;;0.30;0.30;;;;;;;;;;6265803;22;20053;-86
2023/10/23 19:34:43;;;;;;;0.10;0.10;;;;;;;;;;6267894;22;20438;-88
2023/10/23 19:37:10;;;;;;;0.20;0.20;;;;;;;;;;6267399;22;20019;-88
2023/10/23 19:39:42;;;;;;;0.20;0.20;;;;;;;;;;6269586;22;20011;-87
2023/10/23 19:42:11;;;;;;;0.30;0.30;;;;;;;;;;6263059;22;20011;-88
2023/10/23 19:44:37;;;;;;;0.45;0.45;;;;;;;;;;6272693;22;20039;-88
2023/10/23 19:47:03;;;;;;;0.40;0.40;;;;;;;;;;6268700;22;20520;-86
2023/10/23 19:49:29;;;;;;;0.20;0.20;;;;;;;;;;6266323;22;20045;-87
2023/10/23 19:51:55;;;;;;;0.20;0.20;;;;;;;;;;6274269;22;20046;-86
2023/10/23 19:54:21;;;;;;;0.30;0.30;;;;;;;;;;6268677;22;20015;-87
2023/10/23 19:56:48;;;;;;;0.30;0.30;;;;;;;;;;6273989;22;20449;-88
2023/10/23 19:59:20;;;;;;;0.30;0.30;;;;;;;;;;6275680;22;20010;-87
2023/10/23 20:01:46;;;;;;;0.20;0.20;;;;;;;;;;6272187;22;20039;-87
2023/10/23 20:04:12;;;;;;;0.35;0.35;;;;;;;;;;6268677;22;20045;-88
2023/10/23 20:06:38;;;;;;;0.30;0.30;;;;;;;;;;6269084;22;20042;-85
2023/10/23 20:09:04;;;;;;;0.30;0.30;;;;;;;;;;6266349;22;20011;-87
2023/10/23 20:11:30;;;;;;;0.20;0.20;;;;;;;;;;6266905;22;20019;-87
2023/10/23 20:13:56;;;;;;;0.15;0.15;;;;;;;;;;6266339;22;20023;-88
2023/10/23 20:16:23;;;;;;;0.20;0.20;;;;;;;;;;6293342;22;20026;-87
2023/10/23 20:18:49;;;;;;;0.20;0.20;;;;;;;;;;6267419;22;20354;-88
2023/10/23 20:21:15;;;;;;;0.20;0.20;;;;;;;;;;6269079;22;20022;-88
2023/10/23 20:23:41;;;;;;;0.35;0.35;;;;;;;;;;6267454;22;20019;-88
2023/10/23 20:26:16;;;;;;;0.70;0.70;;;;;;;;;;6274523;22;20009;-87
2023/10/23 20:28:43;;;;;;;0.15;0.15;;;;;;;;;;6280748;22;20054;-87
2023/10/23 20:31:18;;;;;;;0.20;0.20;;;;;;;;;;6268343;22;20038;-87
2023/10/23 20:33:45;;;;;;;0.30;0.30;;;;;;;;;;6266199;22;20011;-89
2023/10/23 20:36:11;;;;;;;0.20;0.20;;;;;;;;;;6292856;22;20253;-89
2023/10/23 20:38:38;;;;;;;0.20;0.20;;;;;;;;;;6292535;22;20011;-87
2023/10/23 20:41:20;;;;;;;0.28;0.28;;;;;;;;;;6273361;22;20070;-88
2023/10/23 20:43:48;;;;;;;0.20;0.20;;;;;;;;;;6282667;22;20045;-88
2023/10/23 20:46:19;;;;;;;0.28;0.28;;;;;;;;;;6330403;22;20015;-90
2023/10/23 20:48:49;;;;;;;0.20;0.20;;;;;;;;;;6306208;22;20030;-89
2023/10/23 20:51:31;;;;;;;0.30;0.30;;;;;;;;;;6278933;22;19999;-89
2023/10/23 20:53:57;;;;;;;0.30;0.30;;;;;;;;;;6269471;22;20022;-87
2023/10/23 20:56:27;;;;;;;0.30;0.30;;;;;;;;;;6304276;22;20027;-87
2023/10/23 21:04:23;;;;;;;0.20;0.20;;;;;;;;;;6262175;22;20062;-85
2023/10/23 21:06:52;;;;;;;0.20;0.20;;;;;;;;;;6276335;22;20020;-86
2023/10/23 21:10:01;;;;;;;0.20;0.20;;;;;;;;;;6303062;22;20037;-87
2023/10/23 21:16:01;;;;;;;0.30;0.30;;;;;;;;;;6346450;22;20021;-87
2023/10/23 21:18:43;;;;;;;0.20;0.20;;;;;;;;;;6313139;22;19999;-87
2023/10/23 21:21:32;;;;;;;0.77;0.57;;;;;;;;;;6336744;22;20006;-88
2023/10/23 21:23:58;;;;;;;0.40;0.40;;;;;;;;;;6268042;22;20019;-88
2023/10/23 21:26:24;;;;;;;0.30;0.30;;;;;;;;;;6268910;22;20019;-88
2023/10/23 21:28:55;;;;;;;0.22;0.22;;;;;;;;;;6272885;22;20051;-86
2023/10/23 21:31:51;;;;;;;0.35;0.35;;;;;;;;;;6335401;22;20010;-88
2023/10/23 21:34:19;;;;;;;0.25;0.25;;;;;;;;;;6246957;22;20019;-86
2023/10/23 21:36:46;;;;;;;0.20;0.20;;;;;;;;;;6307507;22;20065;-87
2023/10/23 21:39:12;;;;;;;0.30;0.30;;;;;;;;;;6272359;22;20026;-87
2023/10/23 21:49:38;;;;;;;0.17;0.17;;;;;;;;;;6297769;22;20440;-89
2023/10/23 21:52:06;;;;;;;0.30;0.30;;;;;;;;;;6275140;22;20019;-87
2023/10/23 21:54:36;;;;;;;0.30;0.30;;;;;;;;;;6309542;22;20009;-88
2023/10/23 21:57:06;;;;;;;0.20;0.20;;;;;;;;;;6268850;22;20015;-89
2023/10/23 21:59:41;;;;;;;0.20;0.20;;;;;;;;;;6272200;22;20011;-86
2023/10/23 22:02:09;;;;;;;0.25;0.25;;;;;;;;;;6271849;22;20026;-89
2023/10/23 22:04:35;;;;;;;0.30;0.30;;;;;;;;;;6277640;22;20019;-87
2023/10/23 22:07:01;;;;;;;0.17;0.17;;;;;;;;;;6275700;22;20430;-89
2023/10/23 22:09:27;;;;;;;0.20;0.20;;;;;;;;;;6271889;22;20015;-89
2023/10/23 22:11:54;;;;;;;0.15;0.15;;;;;;;;;;6272033;22;20030;-88
2023/10/23 22:14:20;;;;;;;0.25;0.25;;;;;;;;;;6270302;22;20017;-87
2023/10/23 22:16:47;;;;;;;0.40;0.40;;;;;;;;;;6270727;22;20049;-88
2023/10/23 22:19:16;;;;;;;0.30;0.30;;;;;;;;;;6274229;22;20019;-88
2023/10/23 22:21:42;;;;;;;0.30;0.30;;;;;;;;;;6272478;22;20022;-89
2023/10/23 22:24:16;;;;;;;0.20;0.20;;;;;;;;;;6280639;22;20022;-88
2023/10/23 22:26:52;;;;;;;0.20;0.20;;;;;;;;;;6332587;22;20011;-88
2023/10/23 22:29:22;;;;;;;0.20;0.20;;;;;;;;;;6273176;22;20023;-89